createdAt,value
2019-05-22T00:01:32.196Z,12.70
2019-05-22T00:04:14.439Z,12.70
2019-05-22T00:06:50.938Z,12.70
2019-05-22T00:09:30.225Z,12.70
2019-05-22T00:12:00.936Z,12.70
2019-05-22T00:14:36.682Z,12.70
2019-05-22T00:17:10.294Z,12.60
2019-05-22T00:19:41.122Z,12.70
2019-05-22T00:22:22.459Z,12.70
2019-05-22T00:24:54.561Z,12.70
2019-05-22T00:27:26.483Z,12.60
2019-05-22T00:29:57.483Z,12.70
2019-05-22T00:32:27.440Z,12.70
2019-05-22T00:34:58.319Z,12.70
2019-05-22T00:37:29.148Z,12.70
2019-05-22T00:40:00.254Z,12.60
2019-05-22T00:42:32.378Z,12.70
2019-05-22T00:45:02.508Z,12.70
2019-05-22T00:47:34.351Z,12.60
2019-05-22T00:50:08.548Z,12.60
2019-05-22T00:52:48.680Z,12.60
2019-05-22T00:55:52.339Z,12.60
2019-05-22T00:58:31.052Z,12.60
2019-05-22T01:01:12.759Z,12.60
2019-05-22T01:03:43.372Z,12.60
2019-05-22T01:06:13.271Z,12.60
2019-05-22T01:08:44.543Z,12.60
2019-05-22T01:11:15.389Z,12.60
2019-05-22T01:13:47.161Z,12.60
2019-05-22T01:16:17.607Z,12.60
2019-05-22T01:18:47.481Z,12.60
2019-05-22T01:21:24.358Z,12.60
2019-05-22T01:23:56.177Z,12.60
2019-05-22T01:26:25.966Z,12.60
2019-05-22T01:28:56.453Z,12.60
2019-05-22T01:31:37.429Z,12.60
2019-05-22T01:34:15.796Z,12.60
2019-05-22T01:36:47.918Z,12.50
2019-05-22T01:39:45.724Z,12.50
2019-05-22T01:42:21.792Z,12.50
2019-05-22T01:45:03.196Z,12.50
2019-05-22T01:47:44.511Z,12.50
2019-05-22T01:50:38.366Z,12.50
2019-05-22T01:53:08.786Z,12.50
2019-05-22T01:55:39.045Z,12.50
2019-05-22T01:58:10.676Z,12.50
2019-05-22T02:00:41.680Z,12.50
2019-05-22T02:03:11.970Z,12.40
2019-05-22T02:05:42.559Z,12.40
2019-05-22T02:08:12.856Z,12.40
2019-05-22T02:10:44.436Z,12.40
2019-05-22T02:13:17.280Z,12.40
2019-05-22T02:15:49.526Z,12.40
2019-05-22T02:18:22.961Z,12.40
2019-05-22T02:20:52.556Z,12.40
2019-05-22T02:23:23.372Z,12.40
2019-05-22T02:25:55.468Z,12.40
2019-05-22T02:28:25.711Z,12.40
2019-05-22T02:30:56.324Z,12.40
2019-05-22T02:33:26.949Z,12.40
2019-05-22T02:35:56.710Z,12.30
2019-05-22T02:38:28.846Z,12.30
2019-05-22T02:40:59.788Z,12.40
2019-05-22T02:43:30.877Z,12.40
2019-05-22T02:46:00.844Z,12.30
2019-05-22T02:48:31.577Z,12.30
2019-05-22T02:51:02.301Z,12.30
2019-05-22T02:53:31.552Z,12.30
2019-05-22T02:56:00.815Z,12.30
2019-05-22T02:58:31.703Z,12.30
2019-05-22T03:01:05.013Z,12.30
2019-05-22T03:03:36.817Z,12.30
2019-05-22T03:06:12.651Z,12.30
2019-05-22T03:09:15.978Z,12.20
2019-05-22T03:11:52.818Z,12.30
2019-05-22T03:14:23.238Z,12.30
2019-05-22T03:16:56.355Z,12.20
2019-05-22T03:19:39.064Z,12.30
2019-05-22T03:22:23.461Z,12.20
2019-05-22T03:24:57.172Z,12.20
2019-05-22T03:27:43.262Z,12.20
2019-05-22T03:30:36.762Z,12.20
2019-05-22T03:33:34.374Z,12.20
2019-05-22T03:35:50.808Z,12.10
2019-05-22T03:38:23.357Z,12.10
2019-05-22T03:40:57.830Z,12.10
2019-05-22T03:43:32.224Z,12.10
2019-05-22T03:46:08.304Z,12.10
2019-05-22T03:48:40.261Z,12.10
2019-05-22T03:51:17.622Z,12.10
2019-05-22T03:53:52.190Z,12.10
2019-05-22T03:56:27.206Z,12.10
2019-05-22T03:58:58.467Z,12.10
2019-05-22T04:01:29.390Z,12.00
2019-05-22T04:03:59.669Z,12.00
2019-05-22T04:06:29.986Z,12.00
2019-05-22T04:09:02.871Z,12.00
2019-05-22T04:11:35.884Z,12.00
2019-05-22T04:14:05.948Z,12.00
2019-05-22T04:16:36.221Z,12.00
2019-05-22T04:19:07.998Z,12.00
2019-05-22T04:21:37.722Z,11.90
2019-05-22T04:24:07.530Z,11.90
2019-05-22T04:26:37.571Z,11.90
2019-05-22T04:29:08.201Z,11.90
2019-05-22T04:31:48.842Z,11.90
2019-05-22T04:34:19.791Z,12.00
2019-05-22T04:36:51.448Z,12.00
2019-05-22T04:39:24.325Z,12.00
2019-05-22T04:41:55.834Z,12.00
2019-05-22T04:44:26.494Z,12.00
2019-05-22T04:46:57.045Z,12.00
2019-05-22T04:49:26.644Z,12.10
2019-05-22T04:51:56.354Z,12.10
2019-05-22T04:54:25.586Z,12.10
2019-05-22T04:56:55.914Z,12.10
2019-05-22T04:59:26.490Z,12.10
2019-05-22T05:01:56.560Z,12.10
2019-05-22T05:04:30.512Z,12.10
2019-05-22T05:06:59.753Z,12.20
2019-05-22T05:09:30.406Z,12.10
2019-05-22T05:12:00.329Z,12.20
2019-05-22T05:14:29.498Z,12.10
2019-05-22T05:16:59.034Z,12.10
2019-05-22T05:19:28.560Z,12.10
2019-05-22T05:21:57.917Z,12.10
2019-05-22T05:24:30.968Z,12.10
2019-05-22T05:27:02.334Z,12.10
2019-05-22T05:29:33.819Z,12.20
2019-05-22T05:32:03.473Z,12.20
2019-05-22T05:35:00.593Z,12.20
2019-05-22T05:37:32.767Z,12.30
2019-05-22T05:40:30.034Z,12.40
2019-05-22T05:43:01.745Z,12.60
2019-05-22T05:45:33.921Z,12.80
2019-05-22T05:48:07.380Z,13.20
2019-05-22T05:50:40.308Z,13.50
2019-05-22T05:53:18.783Z,13.80
2019-05-22T05:56:16.648Z,14.10
2019-05-22T05:58:47.666Z,14.40
2019-05-22T06:01:32.559Z,14.80
2019-05-22T06:04:03.958Z,15.20
2019-05-22T06:07:12.581Z,15.50
2019-05-22T06:09:42.113Z,15.80
2019-05-22T06:12:13.796Z,16.30
2019-05-22T06:14:43.269Z,16.70
2019-05-22T06:17:57.846Z,16.90
2019-05-22T06:20:28.489Z,17.10
2019-05-22T06:23:44.855Z,17.40
2019-05-22T06:26:53.214Z,17.70
2019-05-22T06:29:28.665Z,17.90
2019-05-22T06:32:55.636Z,18.20
2019-05-22T06:35:26.720Z,18.50
2019-05-22T06:38:24.684Z,18.60
2019-05-22T06:40:54.430Z,18.70
2019-05-22T06:44:18.974Z,18.60
2019-05-22T06:46:51.558Z,18.60
2019-05-22T06:49:41.921Z,18.50
2019-05-22T06:52:11.773Z,18.50
2019-05-22T06:54:41.401Z,18.50
2019-05-22T06:57:15.183Z,18.60
2019-05-22T06:59:47.845Z,18.60
2019-05-22T07:02:21.319Z,18.60
2019-05-22T07:04:51.275Z,18.60
2019-05-22T07:07:26.633Z,18.40
2019-05-22T07:58:41.479Z,18.50
2019-05-22T08:01:36.256Z,18.50
2019-05-22T08:04:30.783Z,18.50
2019-05-22T08:07:00.780Z,18.50
2019-05-22T08:09:30.027Z,18.50
2019-05-22T08:12:00.087Z,18.60
2019-05-22T08:14:29.628Z,18.50
2019-05-22T08:16:58.801Z,18.60
2019-05-22T08:19:28.233Z,18.60
2019-05-22T08:22:07.221Z,18.60
2019-05-22T08:24:32.229Z,18.70
2019-05-22T08:27:03.473Z,18.60
2019-05-22T08:29:33.630Z,18.70
2019-05-22T08:32:05.037Z,18.60
2019-05-22T08:34:35.487Z,18.60
2019-05-22T08:37:08.725Z,18.60
2019-05-22T08:39:40.923Z,18.50
2019-05-22T08:42:13.166Z,18.60
2019-05-22T08:44:42.608Z,18.60
2019-05-22T08:47:13.203Z,18.60
2019-05-22T08:49:42.716Z,18.70
2019-05-22T08:52:23.006Z,18.70
2019-05-22T08:54:49.056Z,18.80
2019-05-22T08:57:22.769Z,18.90
2019-05-22T08:59:52.355Z,19.10
2019-05-22T09:02:22.477Z,19.30
2019-05-22T09:04:51.698Z,19.40
2019-05-22T09:07:21.070Z,19.60
2019-05-22T09:09:50.340Z,19.70
2019-05-22T09:12:20.660Z,19.80
2019-05-22T09:14:50.093Z,20.10
2019-05-22T09:17:20.519Z,20.30
2019-05-22T09:19:50.531Z,20.50
2019-05-22T09:22:19.860Z,20.70
2019-05-22T09:24:50.741Z,21.10
2019-05-22T09:27:20.055Z,21.40
2019-05-22T09:29:49.379Z,21.60
2019-05-22T09:32:19.808Z,21.80
2019-05-22T09:34:49.932Z,22.00
2019-05-22T09:37:19.316Z,22.10
2019-05-22T09:39:48.514Z,22.30
2019-05-22T09:42:18.789Z,22.50
2019-05-22T09:44:47.988Z,22.70
2019-05-22T09:47:19.003Z,22.90
2019-05-22T09:49:48.414Z,23.10
2019-05-22T09:52:18.258Z,23.40
2019-05-22T09:54:47.554Z,23.60
2019-05-22T09:57:17.440Z,23.70
2019-05-22T09:59:46.620Z,23.80
2019-05-22T10:02:18.392Z,23.90
2019-05-22T10:04:47.758Z,24.00
2019-05-22T10:07:17.586Z,24.10
2019-05-22T10:09:51.160Z,24.30
2019-05-22T10:12:21.088Z,24.30
2019-05-22T10:14:50.530Z,24.30
2019-05-22T10:17:20.855Z,24.30
2019-05-22T10:19:51.255Z,24.20
2019-05-22T10:22:21.094Z,24.30
2019-05-22T10:24:51.955Z,24.40
2019-05-22T10:27:21.915Z,24.40
2019-05-22T10:29:52.561Z,24.50
2019-05-22T10:32:21.733Z,24.50
2019-05-22T10:34:50.991Z,24.50
2019-05-22T10:37:20.266Z,24.70
2019-05-22T10:39:52.879Z,24.70
2019-05-22T10:42:21.969Z,25.00
2019-05-22T10:44:51.120Z,25.00
2019-05-22T10:47:20.547Z,25.00
2019-05-22T10:49:49.750Z,24.90
2019-05-22T10:52:19.030Z,24.90
2019-05-22T10:54:48.265Z,25.10
2019-05-22T10:57:18.860Z,25.00
2019-05-22T10:59:48.061Z,25.00
2019-05-22T11:02:17.860Z,25.20
2019-05-22T11:04:47.139Z,25.40
2019-05-22T11:07:18.055Z,25.50
2019-05-22T11:09:47.397Z,25.50
2019-05-22T11:12:16.629Z,25.60
2019-05-22T11:14:49.859Z,25.80
2019-05-22T11:17:19.225Z,25.80
2019-05-22T11:19:48.419Z,25.70
2019-05-22T11:22:19.573Z,25.70
2019-05-22T11:24:48.798Z,25.90
2019-05-22T11:27:21.593Z,26.00
2019-05-22T11:29:51.626Z,26.00
2019-05-22T11:32:22.165Z,26.00
2019-05-22T11:34:51.403Z,26.00
2019-05-22T11:37:21.534Z,26.00
2019-05-22T11:39:50.814Z,26.00
2019-05-22T11:42:20.238Z,26.10
2019-05-22T11:44:51.495Z,26.30
2019-05-22T11:47:21.768Z,26.40
2019-05-22T11:49:51.023Z,26.50
2019-05-22T11:52:20.927Z,26.50
2019-05-22T11:54:50.289Z,26.70
2019-05-22T11:57:19.655Z,26.70
2019-05-22T11:59:49.113Z,26.70
2019-05-22T12:02:19.543Z,26.70
2019-05-22T12:04:49.735Z,26.60
2019-05-22T12:07:20.459Z,26.70
2019-05-22T12:09:50.089Z,26.80
2019-05-22T12:12:19.989Z,26.80
2019-05-22T12:14:49.237Z,26.90
2019-05-22T12:17:34.783Z,27.00
2019-05-22T12:19:49.435Z,27.00
2019-05-22T12:22:19.976Z,27.00
2019-05-22T12:24:49.677Z,27.10
2019-05-22T12:27:19.809Z,27.10
2019-05-22T12:29:54.354Z,27.10
2019-05-22T12:36:01.279Z,27.20
2019-05-22T12:38:34.170Z,27.20
2019-05-22T12:41:04.917Z,27.20
2019-05-22T12:43:35.662Z,27.40
2019-05-22T12:46:07.164Z,27.50
2019-05-22T12:48:41.533Z,27.40
2019-05-22T12:51:15.180Z,27.50
2019-05-22T12:53:54.100Z,27.60
2019-05-22T12:56:24.400Z,27.80
2019-05-22T12:58:57.581Z,27.90
2019-05-22T13:01:29.368Z,28.00
2019-05-22T13:04:42.100Z,28.00
2019-05-22T13:07:40.805Z,28.10
2019-05-22T13:14:38.861Z,28.20
2019-05-22T13:26:27.024Z,28.20
2019-05-22T13:33:30.683Z,28.20
2019-05-22T13:36:43.817Z,28.20
2019-05-22T13:42:41.489Z,28.10
2019-05-22T13:52:46.685Z,28.30
2019-05-22T13:59:26.778Z,27.90
2019-05-22T14:27:27.812Z,27.40
2019-05-22T14:33:54.486Z,27.60
2019-05-22T14:41:28.715Z,27.20
2019-05-22T14:59:42.396Z,26.90
2019-05-22T15:06:15.427Z,27.00
2019-05-22T15:09:09.986Z,27.10
2019-05-22T15:11:41.926Z,27.00
2019-05-22T15:14:11.727Z,26.90
2019-05-22T15:16:41.029Z,26.70
2019-05-22T15:19:10.764Z,26.40
2019-05-22T15:21:40.115Z,26.40
2019-05-22T15:24:09.360Z,26.20
2019-05-22T15:26:38.805Z,26.20
2019-05-22T15:29:08.543Z,26.00
2019-05-22T15:31:38.181Z,26.00
2019-05-22T15:34:13.200Z,25.70
2019-05-22T15:36:42.123Z,25.70
2019-05-22T15:39:15.437Z,25.70
2019-05-22T15:41:44.899Z,25.60
2019-05-22T15:44:14.528Z,25.50
2019-05-22T15:46:47.993Z,25.30
2019-05-22T15:49:19.537Z,25.20
2019-05-22T15:51:52.555Z,25.20
2019-05-22T15:54:22.973Z,25.20
2019-05-22T15:56:54.726Z,25.30
2019-05-22T15:59:24.446Z,25.30
2019-05-22T16:01:55.166Z,25.20
2019-05-22T16:04:25.083Z,25.10
2019-05-22T16:06:55.000Z,25.00
2019-05-22T16:09:27.401Z,24.90
2019-05-22T16:11:56.632Z,24.90
2019-05-22T16:14:29.686Z,24.90
2019-05-22T16:17:01.445Z,25.00
2019-05-22T16:19:32.750Z,25.00
2019-05-22T16:22:06.809Z,25.10
2019-05-22T16:24:39.071Z,25.10
2019-05-22T16:27:10.729Z,25.00
2019-05-22T16:29:40.564Z,25.00
2019-05-22T16:32:12.084Z,24.80
2019-05-22T16:34:42.589Z,24.70
2019-05-22T16:37:11.750Z,24.60
2019-05-22T16:39:41.911Z,24.50
2019-05-22T16:42:11.843Z,24.40
2019-05-22T16:44:42.540Z,24.40
2019-05-22T16:47:11.897Z,24.30
2019-05-22T16:49:41.066Z,24.10
2019-05-22T16:52:13.308Z,24.10
2019-05-22T16:54:45.681Z,24.00
2019-05-22T16:57:15.439Z,23.90
2019-05-22T16:59:45.976Z,23.80
2019-05-22T17:02:16.952Z,23.70
2019-05-22T17:04:48.875Z,23.70
2019-05-22T17:07:19.687Z,23.70
2019-05-22T17:09:51.323Z,23.60
2019-05-22T17:12:23.327Z,23.60
2019-05-22T17:14:53.600Z,23.50
2019-05-22T17:17:22.909Z,23.30
2019-05-22T17:19:52.727Z,23.20
2019-05-22T17:22:22.555Z,23.10
2019-05-22T17:24:51.935Z,23.00
2019-05-22T17:27:22.789Z,23.00
2019-05-22T17:29:52.688Z,22.90
2019-05-22T17:32:23.515Z,22.80
2019-05-22T17:34:54.050Z,22.70
2019-05-22T17:37:25.602Z,22.60
2019-05-22T17:39:54.987Z,22.60
2019-05-22T17:42:29.538Z,22.50
2019-05-22T17:45:00.336Z,22.50
2019-05-22T17:47:31.572Z,22.20
2019-05-22T17:50:01.980Z,22.10
2019-05-22T17:52:33.062Z,22.00
2019-05-22T17:55:02.442Z,21.90
2019-05-22T17:57:33.230Z,21.90
2019-05-22T18:00:04.222Z,21.80
2019-05-22T18:02:35.566Z,21.60
2019-05-22T18:05:07.481Z,21.50
2019-05-22T18:07:38.622Z,21.40
2019-05-22T18:10:08.723Z,21.30
2019-05-22T18:12:38.034Z,21.30
2019-05-22T18:15:10.065Z,21.20
2019-05-22T18:17:39.867Z,21.20
2019-05-22T18:20:11.343Z,21.10
2019-05-22T18:22:41.312Z,21.00
2019-05-22T18:25:12.024Z,20.90
2019-05-22T18:27:41.174Z,20.80
2019-05-22T18:30:12.161Z,20.70
2019-05-22T18:32:43.109Z,20.70
2019-05-22T18:35:14.428Z,20.60
2019-05-22T18:37:43.724Z,20.60
2019-05-22T18:40:15.228Z,20.50
2019-05-22T18:42:44.423Z,20.50
2019-05-22T18:45:16.299Z,20.30
2019-05-22T18:47:45.530Z,20.30
2019-05-22T18:50:16.647Z,20.10
2019-05-22T18:52:49.372Z,20.00
2019-05-22T18:55:19.623Z,20.00
2019-05-22T18:57:49.624Z,19.90
2019-05-22T19:00:22.435Z,19.80
2019-05-22T19:02:52.169Z,19.70
2019-05-22T19:05:25.397Z,19.60
2019-05-22T19:07:55.727Z,19.60
2019-05-22T19:10:26.013Z,19.50
2019-05-22T19:12:55.203Z,19.40
2019-05-22T19:15:24.841Z,19.30
2019-05-22T19:17:55.214Z,19.20
2019-05-22T19:20:24.541Z,19.20
2019-05-22T19:23:00.705Z,19.10
2019-05-22T19:25:26.664Z,19.00
2019-05-22T19:28:02.145Z,19.00
2019-05-22T19:30:31.967Z,18.80
2019-05-22T19:33:01.162Z,18.80
2019-05-22T19:35:30.641Z,18.70
2019-05-22T19:38:00.830Z,18.60
2019-05-22T19:40:30.064Z,18.50
2019-05-22T19:42:59.502Z,18.40
2019-05-22T19:45:31.147Z,18.30
2019-05-22T19:48:00.026Z,18.20
2019-05-22T19:50:31.209Z,18.10
2019-05-22T19:53:17.507Z,18.00
2019-05-22T19:55:32.473Z,18.00
2019-05-22T19:58:01.956Z,17.90
2019-05-22T20:00:31.695Z,17.80
2019-05-22T20:03:02.015Z,17.70
2019-05-22T20:05:33.463Z,17.60
2019-05-22T20:08:03.870Z,17.60
2019-05-22T20:10:33.162Z,17.50
2019-05-22T20:13:02.907Z,17.40
2019-05-22T20:15:32.804Z,17.40
2019-05-22T20:18:03.229Z,17.40
2019-05-22T20:20:32.965Z,17.30
2019-05-22T20:23:03.390Z,17.20
2019-05-22T20:25:34.072Z,17.10
2019-05-22T20:28:03.586Z,17.10
2019-05-22T20:30:32.968Z,17.00
2019-05-22T20:33:02.382Z,17.00
2019-05-22T20:35:33.161Z,16.90
2019-05-22T20:38:02.640Z,16.90
2019-05-22T20:40:32.418Z,16.80
2019-05-22T20:43:02.148Z,16.80
2019-05-22T20:45:32.494Z,16.70
2019-05-22T20:48:11.928Z,16.70
2019-05-22T20:50:43.122Z,16.60
2019-05-22T20:53:16.320Z,16.50
2019-05-22T20:55:47.785Z,16.50
2019-05-22T20:58:19.372Z,16.40
2019-05-22T21:00:51.435Z,16.30
2019-05-22T21:03:22.201Z,16.30
2019-05-22T21:05:52.915Z,16.30
2019-05-22T21:08:25.212Z,16.20
2019-05-22T21:10:56.182Z,16.20
2019-05-22T21:13:26.189Z,16.10
2019-05-22T21:15:55.940Z,16.10
2019-05-22T21:18:31.136Z,16.00
2019-05-22T21:21:00.814Z,16.00
2019-05-22T21:23:30.261Z,15.90
2019-05-22T21:25:59.528Z,15.80
2019-05-22T21:28:28.910Z,15.80
2019-05-22T21:30:59.048Z,15.80
2019-05-22T21:33:28.901Z,15.70
2019-05-22T21:35:58.116Z,15.60
2019-05-22T21:38:29.734Z,15.60
2019-05-22T21:40:59.448Z,15.60
2019-05-22T21:43:28.682Z,15.50
2019-05-22T21:45:58.893Z,15.60
2019-05-22T21:48:29.042Z,15.50
2019-05-22T21:50:58.790Z,15.50
2019-05-22T21:53:29.518Z,15.40
2019-05-22T21:56:05.289Z,15.40
2019-05-22T21:58:30.734Z,15.40
2019-05-22T22:01:19.306Z,15.30
2019-05-22T22:03:53.309Z,15.30
2019-05-22T22:06:22.512Z,15.20
2019-05-22T22:08:52.182Z,15.10
2019-05-22T22:11:25.181Z,15.10
2019-05-22T22:13:54.652Z,15.10
2019-05-22T22:16:24.909Z,15.00
2019-05-22T22:18:55.005Z,15.00
2019-05-22T22:21:24.320Z,15.00
2019-05-22T22:23:53.802Z,15.00
2019-05-22T22:26:25.873Z,14.90
2019-05-22T22:28:55.530Z,15.00
2019-05-22T22:31:26.938Z,15.00
2019-05-22T22:34:03.469Z,15.00
2019-05-22T22:36:33.892Z,14.90
2019-05-22T22:39:03.627Z,14.90
2019-05-22T22:41:32.803Z,14.90
2019-05-22T22:44:05.645Z,14.90
2019-05-22T22:46:39.874Z,14.90
2019-05-22T22:49:15.295Z,14.90
2019-05-22T22:51:45.691Z,14.80
2019-05-22T22:54:16.028Z,14.80
2019-05-22T22:56:45.465Z,14.80
2019-05-22T22:59:15.828Z,14.80
2019-05-22T23:01:50.247Z,14.80
2019-05-22T23:04:22.401Z,14.80
2019-05-22T23:06:52.595Z,14.80
2019-05-22T23:09:23.135Z,14.80
2019-05-22T23:11:53.929Z,14.80
2019-05-22T23:14:24.336Z,14.70
2019-05-22T23:16:56.041Z,14.70
2019-05-22T23:19:34.009Z,14.70
2019-05-22T23:22:03.891Z,14.70
2019-05-22T23:24:37.551Z,14.70
2019-05-22T23:27:08.618Z,14.60
2019-05-22T23:29:41.002Z,14.60
2019-05-22T23:32:11.953Z,14.60
2019-05-22T23:34:43.582Z,14.60
2019-05-22T23:37:14.927Z,14.60
2019-05-22T23:39:47.561Z,14.60
2019-05-22T23:42:24.490Z,14.60
2019-05-22T23:44:57.004Z,14.50
2019-05-22T23:47:27.868Z,14.50
2019-05-22T23:49:57.219Z,14.50
2019-05-22T23:52:26.574Z,14.40
2019-05-22T23:54:55.932Z,14.40
2019-05-22T23:57:27.263Z,14.40
2019-05-22T23:59:58.644Z,14.40
